createdAt,value
2018-03-23T00:01:48.448Z,52.82
2018-03-23T00:04:16.049Z,53.38
2018-03-23T00:06:43.619Z,53.35
2018-03-23T00:09:11.738Z,53.32
2018-03-23T00:11:39.828Z,53.84
2018-03-23T00:14:07.428Z,56.12
2018-03-23T00:16:34.987Z,59.11
2018-03-23T00:19:03.331Z,60.55
2018-03-23T00:21:30.920Z,59.75
2018-03-23T00:23:59.113Z,60.89
2018-03-23T00:26:26.720Z,62.65
2018-03-23T00:28:54.260Z,61.43
2018-03-23T00:31:24.243Z,61.96
2018-03-23T00:33:51.819Z,64.49
2018-03-23T00:36:19.836Z,63.85
2018-03-23T00:38:47.438Z,62.33
2018-03-23T00:41:15.004Z,62.96
2018-03-23T00:43:42.591Z,62.27
2018-03-23T00:46:10.150Z,61.77
2018-03-23T00:48:37.901Z,63.04
2018-03-23T00:51:05.468Z,63.99
2018-03-23T00:53:33.059Z,63.53
2018-03-23T00:56:01.007Z,64.78
2018-03-23T00:58:28.548Z,66.40
2018-03-23T01:00:56.120Z,66.80
2018-03-23T01:03:23.712Z,67.28
2018-03-23T01:05:51.238Z,67.37
2018-03-23T01:08:19.333Z,66.94
2018-03-23T01:10:47.298Z,65.02
2018-03-23T01:13:15.463Z,64.02
2018-03-23T01:15:43.904Z,65.78
2018-03-23T01:18:13.403Z,67.57
2018-03-23T01:20:40.940Z,68.23
2018-03-23T01:23:08.820Z,68.40
2018-03-23T01:25:37.153Z,69.45
2018-03-23T01:28:04.704Z,70.07
2018-03-23T01:30:32.301Z,69.93
2018-03-23T01:32:59.832Z,70.14
2018-03-23T01:35:28.219Z,70.06
2018-03-23T01:37:55.800Z,70.01
2018-03-23T01:40:23.384Z,69.54
2018-03-23T01:42:50.967Z,67.60
2018-03-23T01:45:18.552Z,67.31
2018-03-23T01:47:47.057Z,68.34
2018-03-23T01:50:14.643Z,69.01
2018-03-23T01:52:42.190Z,68.37
2018-03-23T01:55:09.736Z,69.75
2018-03-23T01:57:37.323Z,70.38
2018-03-23T02:00:04.952Z,71.31
2018-03-23T02:02:32.495Z,71.42
2018-03-23T02:05:00.034Z,71.57
2018-03-23T02:07:27.625Z,70.58
2018-03-23T02:09:55.952Z,69.96
2018-03-23T02:12:23.496Z,69.08
2018-03-23T02:14:51.082Z,69.02
2018-03-23T02:17:18.939Z,69.02
2018-03-23T02:19:46.877Z,69.03
2018-03-23T02:22:15.091Z,68.80
2018-03-23T02:24:43.663Z,68.17
2018-03-23T02:27:11.199Z,68.11
2018-03-23T02:29:38.756Z,67.33
2018-03-23T02:32:06.365Z,67.70
2018-03-23T02:34:33.903Z,67.43
2018-03-23T02:37:01.725Z,67.23
2018-03-23T02:39:29.273Z,66.35
2018-03-23T02:41:56.813Z,66.33
2018-03-23T02:44:25.020Z,67.80
2018-03-23T02:46:52.557Z,67.13
2018-03-23T02:49:20.101Z,65.80
2018-03-23T02:51:47.676Z,65.75
2018-03-23T02:54:15.266Z,65.36
2018-03-23T02:56:42.800Z,65.58
2018-03-23T02:59:10.392Z,66.34
2018-03-23T03:01:38.562Z,66.82
2018-03-23T03:04:06.169Z,66.54
2018-03-23T03:06:33.718Z,66.76
2018-03-23T03:09:01.311Z,65.94
2018-03-23T03:11:28.903Z,66.28
2018-03-23T03:13:56.874Z,67.34
2018-03-23T03:16:24.831Z,67.42
2018-03-23T03:18:52.781Z,66.82
2018-03-23T03:21:20.363Z,66.47
2018-03-23T03:23:47.907Z,68.52
2018-03-23T03:26:15.731Z,68.55
2018-03-23T03:28:43.319Z,67.48
2018-03-23T03:31:11.055Z,66.21
2018-03-23T03:33:38.640Z,67.09
2018-03-23T03:36:07.067Z,67.55
2018-03-23T03:38:34.662Z,68.28
2018-03-23T03:41:02.243Z,68.62
2018-03-23T03:43:29.838Z,69.18
2018-03-23T03:45:57.707Z,71.27
2018-03-23T03:48:25.252Z,72.17
2018-03-23T03:50:52.996Z,72.71
2018-03-23T03:53:20.604Z,73.21
2018-03-23T03:55:48.154Z,73.44
2018-03-23T03:58:15.763Z,73.85
2018-03-23T04:00:43.317Z,74.25
2018-03-23T04:03:10.876Z,73.91
2018-03-23T04:05:38.471Z,73.65
2018-03-23T04:08:06.702Z,73.99
2018-03-23T04:10:34.641Z,74.10
2018-03-23T04:13:02.194Z,74.32
2018-03-23T04:15:31.659Z,74.03
2018-03-23T04:17:59.240Z,73.97
2018-03-23T04:20:26.840Z,73.46
2018-03-23T04:22:54.429Z,72.99
2018-03-23T04:25:22.023Z,70.71
2018-03-23T04:27:49.985Z,69.40
2018-03-23T04:30:17.596Z,68.81
2018-03-23T04:32:45.136Z,67.96
2018-03-23T04:35:13.296Z,67.17
2018-03-23T04:37:41.155Z,65.67
2018-03-23T04:40:08.735Z,65.24
2018-03-23T04:42:36.790Z,64.41
2018-03-23T04:45:04.393Z,63.81
2018-03-23T04:47:31.967Z,63.12
2018-03-23T04:49:59.578Z,61.90
2018-03-23T04:52:27.135Z,61.87
2018-03-23T04:54:54.727Z,64.31
2018-03-23T04:57:22.276Z,65.49
2018-03-23T04:59:49.863Z,66.62
2018-03-23T05:02:18.246Z,67.29
2018-03-23T05:04:45.789Z,67.45
2018-03-23T05:07:13.331Z,68.03
2018-03-23T05:09:40.911Z,68.49
2018-03-23T05:12:09.400Z,68.44
2018-03-23T05:14:37.000Z,68.67
2018-03-23T05:17:04.543Z,68.33
2018-03-23T05:19:33.043Z,68.78
2018-03-23T05:22:00.647Z,69.71
2018-03-23T05:24:28.188Z,69.03
2018-03-23T05:26:58.434Z,67.56
2018-03-23T05:29:26.036Z,66.89
2018-03-23T05:31:53.636Z,66.75
2018-03-23T05:34:21.175Z,67.71
2018-03-23T05:36:48.739Z,68.18
2018-03-23T05:39:16.542Z,67.15
2018-03-23T05:41:44.083Z,66.44
2018-03-23T05:44:11.769Z,65.69
2018-03-23T05:46:40.134Z,64.38
2018-03-23T05:49:07.779Z,63.55
2018-03-23T05:51:35.368Z,63.49
2018-03-23T05:54:03.164Z,62.86
2018-03-23T05:56:31.075Z,61.44
2018-03-23T05:58:59.524Z,60.36
2018-03-23T06:01:27.703Z,59.02
2018-03-23T06:03:55.301Z,58.58
2018-03-23T06:06:22.873Z,57.81
2018-03-23T06:08:50.472Z,56.89
2018-03-23T06:11:18.385Z,56.79
2018-03-23T06:13:46.493Z,55.53
2018-03-23T06:16:14.068Z,54.58
2018-03-23T06:18:41.654Z,52.56
2018-03-23T06:21:09.747Z,50.14
2018-03-23T06:23:38.545Z,49.23
2018-03-23T06:26:06.226Z,47.06
2018-03-23T06:28:34.124Z,48.00
2018-03-23T06:31:01.724Z,48.97
2018-03-23T06:33:29.294Z,49.54
2018-03-23T06:35:59.492Z,49.58
2018-03-23T06:38:31.514Z,50.30
2018-03-23T06:40:59.938Z,50.23
2018-03-23T06:43:28.408Z,49.63
2018-03-23T06:45:56.290Z,49.75
2018-03-23T06:48:25.857Z,49.93
2018-03-23T06:50:54.255Z,50.03
2018-03-23T06:53:22.972Z,50.37
2018-03-23T06:55:56.530Z,51.39
2018-03-23T06:58:24.337Z,50.00
2018-03-23T07:00:52.087Z,49.29
2018-03-23T07:03:19.653Z,49.24
2018-03-23T07:05:47.494Z,46.36
2018-03-23T07:08:16.077Z,47.47
2018-03-23T07:10:43.735Z,47.07
2018-03-23T07:13:11.755Z,47.59
2018-03-23T07:15:40.285Z,47.71
2018-03-23T07:18:08.664Z,48.08
2018-03-23T07:20:36.267Z,49.62
2018-03-23T07:23:04.926Z,49.96
2018-03-23T07:25:33.052Z,50.86
2018-03-23T07:28:00.976Z,51.24
2018-03-23T07:30:29.251Z,51.59
2018-03-23T07:32:56.857Z,51.08
2018-03-23T07:35:25.768Z,52.35
2018-03-23T07:37:53.783Z,52.59
2018-03-23T07:40:21.396Z,50.81
2018-03-23T07:42:48.993Z,50.40
2018-03-23T07:45:16.760Z,51.11
2018-03-23T07:47:44.370Z,52.53
2018-03-23T07:50:11.925Z,53.50
2018-03-23T07:52:39.464Z,55.09
2018-03-23T07:55:07.056Z,53.81
2018-03-23T07:57:34.977Z,55.78
2018-03-23T08:00:02.686Z,55.01
2018-03-23T08:02:30.428Z,54.72
2018-03-23T08:04:59.656Z,56.01
2018-03-23T08:07:28.160Z,55.62
2018-03-23T08:09:56.241Z,54.19
2018-03-23T08:12:24.310Z,52.66
2018-03-23T08:14:52.177Z,53.57
2018-03-23T08:17:19.756Z,52.06
2018-03-23T08:19:48.887Z,52.02
2018-03-23T08:22:16.480Z,52.55
2018-03-23T08:24:44.993Z,52.17
2018-03-23T08:27:13.433Z,51.72
2018-03-23T08:29:41.694Z,52.10
2018-03-23T08:32:09.277Z,51.54
2018-03-23T08:34:37.220Z,53.02
2018-03-23T08:37:05.022Z,52.00
2018-03-23T08:39:32.564Z,51.60
2018-03-23T08:42:00.575Z,51.39
2018-03-23T08:44:28.596Z,50.46
2018-03-23T08:46:56.162Z,50.78
2018-03-23T08:49:24.566Z,49.93
2018-03-23T08:51:54.732Z,48.17
2018-03-23T08:54:22.562Z,50.59
2018-03-23T08:56:50.124Z,51.18
2018-03-23T08:59:18.386Z,51.11
2018-03-23T09:01:46.211Z,50.69
2018-03-23T09:04:14.417Z,49.90
2018-03-23T09:06:42.012Z,50.39
2018-03-23T09:09:09.659Z,48.40
2018-03-23T09:11:37.277Z,47.63
2018-03-23T09:14:04.833Z,49.33
2018-03-23T09:16:32.391Z,49.73
2018-03-23T09:18:59.975Z,48.27
2018-03-23T09:21:27.842Z,48.71
2018-03-23T09:23:56.274Z,50.50
2018-03-23T09:26:23.857Z,48.64
2018-03-23T09:28:51.414Z,48.87
2018-03-23T09:31:19.016Z,49.39
2018-03-23T09:33:46.964Z,48.85
2018-03-23T09:36:15.537Z,50.15
2018-03-23T09:38:43.133Z,49.26
2018-03-23T09:41:10.929Z,49.66
2018-03-23T09:43:38.948Z,49.78
2018-03-23T09:46:07.513Z,49.91
2018-03-23T09:48:35.074Z,50.59
2018-03-23T09:51:02.677Z,51.00
2018-03-23T09:53:30.288Z,51.99
2018-03-23T09:55:58.706Z,51.49
2018-03-23T09:58:26.309Z,50.97
2018-03-23T10:00:54.025Z,51.48
2018-03-23T10:03:21.620Z,51.45
2018-03-23T10:05:49.191Z,51.09
2018-03-23T10:08:17.763Z,52.32
2018-03-23T10:10:45.354Z,51.49
2018-03-23T10:13:13.017Z,51.84
2018-03-23T10:15:40.784Z,52.10
2018-03-23T10:18:08.378Z,51.12
2018-03-23T10:20:37.613Z,51.32
2018-03-23T10:23:05.159Z,51.19
2018-03-23T10:25:33.078Z,50.71
2018-03-23T10:28:00.681Z,49.54
2018-03-23T10:30:28.222Z,50.80
2018-03-23T10:32:55.825Z,50.99
2018-03-23T10:35:23.414Z,50.43
2018-03-23T10:37:50.997Z,52.46
2018-03-23T10:40:18.539Z,52.06
2018-03-23T10:42:46.142Z,51.16
2018-03-23T10:45:13.697Z,49.72
2018-03-23T10:47:41.384Z,49.47
2018-03-23T10:50:08.940Z,50.51
2018-03-23T10:52:36.535Z,49.61
2018-03-23T10:55:05.320Z,49.89
2018-03-23T10:57:32.912Z,49.84
2018-03-23T11:00:00.556Z,50.74
2018-03-23T11:02:42.600Z,50.74
2018-03-23T11:05:10.214Z,50.33
2018-03-23T11:07:37.776Z,51.07
2018-03-23T11:10:05.352Z,50.24
2018-03-23T11:12:32.955Z,49.14
2018-03-23T11:15:02.204Z,49.50
2018-03-23T11:17:30.243Z,49.75
2018-03-23T11:19:58.122Z,49.36
2018-03-23T11:22:25.697Z,48.55
2018-03-23T11:24:54.227Z,48.58
2018-03-23T11:27:21.824Z,49.92
2018-03-23T11:29:50.182Z,49.86
2018-03-23T11:32:17.772Z,49.59
2018-03-23T11:34:45.346Z,50.21
2018-03-23T11:37:12.948Z,49.47
2018-03-23T11:39:40.536Z,48.46
2018-03-23T11:42:08.557Z,48.63
2018-03-23T11:44:38.425Z,48.50
2018-03-23T11:47:06.048Z,48.36
2018-03-23T11:49:33.737Z,48.98
2018-03-23T11:52:01.357Z,48.69
2018-03-23T11:54:28.969Z,48.58
2018-03-23T11:56:56.511Z,48.81
2018-03-23T11:59:24.077Z,48.84
2018-03-23T12:01:51.682Z,49.48
2018-03-23T12:04:20.172Z,49.70
2018-03-23T12:06:47.764Z,49.85
2018-03-23T12:09:15.320Z,49.56
2018-03-23T12:11:42.947Z,49.23
2018-03-23T12:14:10.506Z,49.40
2018-03-23T12:16:38.113Z,49.61
2018-03-23T12:19:05.660Z,49.74
2018-03-23T12:21:33.373Z,50.11
2018-03-23T12:24:00.908Z,49.97
2018-03-23T12:26:28.547Z,49.38
2018-03-23T12:28:56.948Z,49.06
2018-03-23T12:31:25.330Z,51.58
2018-03-23T12:33:53.799Z,50.45
2018-03-23T12:36:21.417Z,50.87
2018-03-23T12:38:50.122Z,52.19
2018-03-23T12:41:17.708Z,51.99
2018-03-23T12:43:45.255Z,53.08
2018-03-23T12:46:12.847Z,51.62
2018-03-23T12:48:40.469Z,52.48
2018-03-23T12:51:08.715Z,52.11
2018-03-23T12:53:36.941Z,52.36
2018-03-23T12:56:05.960Z,52.53
2018-03-23T12:58:35.031Z,52.12
2018-03-23T13:01:03.454Z,52.05
2018-03-23T13:03:31.213Z,53.38
2018-03-23T13:05:58.811Z,52.16
2018-03-23T13:08:26.358Z,52.86
2018-03-23T13:10:53.954Z,54.26
2018-03-23T13:13:21.855Z,55.48
2018-03-23T13:15:49.484Z,55.99
2018-03-23T13:18:18.953Z,55.47
2018-03-23T13:20:47.298Z,55.29
2018-03-23T13:23:14.844Z,55.23
2018-03-23T13:25:43.234Z,54.72
2018-03-23T13:28:10.800Z,54.48
2018-03-23T13:30:38.361Z,54.10
2018-03-23T13:33:05.963Z,53.20
2018-03-23T13:35:34.258Z,53.65
2018-03-23T13:38:01.986Z,53.94
2018-03-23T13:40:30.341Z,53.43
2018-03-23T13:42:59.687Z,54.27
2018-03-23T13:45:27.296Z,54.16
2018-03-23T13:47:55.351Z,53.70
2018-03-23T13:50:23.028Z,53.96
2018-03-23T13:52:50.599Z,53.84
2018-03-23T13:55:18.206Z,53.45
2018-03-23T13:57:45.972Z,51.59
2018-03-23T14:00:18.982Z,53.07
2018-03-23T14:02:46.674Z,53.92
2018-03-23T14:05:14.786Z,55.42
2018-03-23T14:07:42.580Z,53.65
2018-03-23T14:10:10.609Z,54.53
2018-03-23T14:12:38.697Z,55.09
2018-03-23T14:15:06.483Z,55.14
2018-03-23T14:17:34.353Z,54.74
2018-03-23T14:20:02.018Z,54.34
2018-03-23T14:22:30.941Z,53.88
2018-03-23T14:24:58.720Z,53.66
2018-03-23T14:27:26.583Z,53.82
2018-03-23T14:29:54.862Z,52.55
2018-03-23T14:32:23.285Z,54.00
2018-03-23T14:34:51.054Z,55.23
2018-03-23T14:37:19.684Z,54.95
2018-03-23T14:39:48.314Z,53.90
2018-03-23T14:42:16.137Z,53.98
2018-03-23T14:44:44.536Z,54.01
2018-03-23T14:47:12.287Z,54.58
2018-03-23T14:49:39.885Z,56.12
2018-03-23T14:52:08.241Z,55.69
2018-03-23T14:54:36.192Z,55.12
2018-03-23T14:57:04.903Z,55.67
2018-03-23T14:59:35.154Z,54.97
2018-03-23T15:02:03.072Z,55.25
2018-03-23T15:04:32.154Z,55.19
2018-03-23T15:07:00.821Z,54.74
2018-03-23T15:09:29.355Z,54.19
2018-03-23T15:11:57.914Z,53.60
2018-03-23T15:14:32.576Z,53.85
2018-03-23T15:17:00.804Z,53.95
2018-03-23T15:19:29.186Z,53.96
2018-03-23T15:21:58.185Z,53.92
2018-03-23T15:24:26.395Z,53.73
2018-03-23T15:26:55.887Z,53.58
2018-03-23T15:29:24.237Z,53.36
2018-03-23T15:31:52.112Z,53.29
2018-03-23T15:34:19.945Z,53.37
2018-03-23T15:36:48.514Z,53.36
2018-03-23T15:39:16.069Z,53.28
2018-03-23T15:41:43.674Z,53.28
2018-03-23T15:44:12.052Z,53.39
2018-03-23T15:46:40.246Z,53.69
2018-03-23T15:49:08.294Z,53.56
2018-03-23T15:51:36.321Z,53.59
2018-03-23T15:54:04.541Z,53.52
2018-03-23T15:56:32.713Z,53.41
2018-03-23T15:59:00.962Z,53.36
2018-03-23T16:01:28.932Z,53.47
2018-03-23T16:03:57.240Z,53.56
2018-03-23T16:06:25.127Z,53.57
2018-03-23T16:08:53.881Z,53.61
2018-03-23T16:11:21.768Z,53.57
2018-03-23T16:13:50.084Z,53.55
2018-03-23T16:16:18.066Z,53.64
2018-03-23T16:18:46.047Z,53.70
2018-03-23T16:21:14.993Z,54.16
2018-03-23T16:23:43.285Z,54.09
2018-03-23T16:26:12.577Z,54.04
2018-03-23T16:28:42.891Z,54.00
2018-03-23T16:31:11.193Z,54.18
2018-03-23T16:33:39.930Z,54.39
2018-03-23T16:36:10.159Z,55.12
2018-03-23T16:38:38.541Z,55.16
2018-03-23T16:41:07.323Z,54.91
2018-03-23T16:43:35.606Z,54.90
2018-03-23T16:46:05.230Z,54.69
2018-03-23T16:48:33.922Z,54.59
2018-03-23T16:51:03.811Z,54.64
2018-03-23T16:53:32.503Z,54.57
2018-03-23T16:56:01.187Z,54.88
2018-03-23T16:58:30.491Z,54.91
2018-03-23T17:00:59.812Z,54.82
2018-03-23T17:03:28.639Z,54.80
2018-03-23T17:05:57.814Z,54.77
2018-03-23T17:08:26.595Z,54.79
2018-03-23T17:10:55.476Z,54.85
2018-03-23T17:13:24.404Z,54.71
2018-03-23T17:15:53.434Z,54.74
2018-03-23T17:18:22.733Z,54.72
2018-03-23T17:20:52.949Z,54.63
2018-03-23T17:23:21.591Z,54.74
2018-03-23T17:25:51.248Z,54.78
2018-03-23T17:28:22.263Z,54.74
2018-03-23T17:30:50.807Z,54.82
2018-03-23T17:33:20.929Z,54.84
2018-03-23T17:35:49.183Z,54.88
2018-03-23T17:38:20.787Z,55.08
2018-03-23T17:40:50.372Z,55.03
2018-03-23T17:43:19.429Z,54.99
2018-03-23T17:45:48.104Z,54.92
2018-03-23T17:48:17.405Z,54.92
2018-03-23T17:50:47.555Z,54.96
2018-03-23T17:53:16.549Z,54.96
2018-03-23T17:55:45.333Z,55.10
2018-03-23T17:58:14.293Z,55.05
2018-03-23T18:00:43.268Z,55.09
2018-03-23T18:03:11.604Z,55.22
2018-03-23T18:05:40.466Z,55.27
2018-03-23T18:08:11.496Z,55.35
2018-03-23T18:10:40.280Z,55.34
2018-03-23T18:13:09.481Z,55.31
2018-03-23T18:15:38.530Z,55.32
2018-03-23T18:18:07.177Z,55.70
2018-03-23T18:20:35.540Z,55.56
2018-03-23T18:23:04.238Z,55.42
2018-03-23T18:25:32.640Z,55.41
2018-03-23T18:28:02.217Z,55.42
2018-03-23T18:30:31.316Z,55.58
2018-03-23T18:33:01.507Z,55.53
2018-03-23T18:35:34.434Z,55.47
2018-03-23T18:38:03.091Z,55.44
2018-03-23T18:40:32.949Z,55.44
2018-03-23T18:43:02.212Z,55.67
2018-03-23T18:45:30.992Z,55.68
2018-03-23T18:47:59.676Z,55.59
2018-03-23T18:50:29.283Z,55.79
2018-03-23T18:52:58.901Z,55.72
2018-03-23T18:55:29.119Z,56.30
2018-03-23T18:57:58.359Z,56.18
2018-03-23T19:00:26.718Z,56.02
2018-03-23T19:02:55.101Z,56.20
2018-03-23T19:05:23.916Z,56.25
2018-03-23T19:07:52.288Z,56.82
2018-03-23T19:10:21.009Z,56.79
2018-03-23T19:12:51.139Z,56.72
2018-03-23T19:15:20.080Z,56.61
2018-03-23T19:17:49.739Z,56.77
2018-03-23T19:20:19.652Z,56.60
2018-03-23T19:22:49.258Z,56.48
2018-03-23T19:25:18.279Z,56.64
2018-03-23T19:27:47.179Z,56.68
2018-03-23T19:30:16.220Z,56.54
2018-03-23T19:32:44.927Z,56.56
2018-03-23T19:35:14.414Z,56.59
2018-03-23T19:37:43.527Z,56.60
2018-03-23T19:40:13.134Z,56.58
2018-03-23T19:42:42.735Z,56.53
2018-03-23T19:45:13.317Z,56.50
2018-03-23T19:47:41.452Z,56.48
2018-03-23T19:50:10.328Z,56.47
2018-03-23T19:52:39.028Z,56.50
2018-03-23T19:55:08.245Z,56.49
2018-03-23T19:57:37.314Z,56.60
2018-03-23T20:00:06.912Z,56.66
2018-03-23T20:02:35.903Z,56.71
2018-03-23T20:05:05.203Z,56.75
2018-03-23T20:07:34.198Z,56.77
2018-03-23T20:10:03.816Z,56.80
2018-03-23T20:12:32.912Z,56.81
2018-03-23T20:15:01.637Z,56.84
2018-03-23T20:17:36.899Z,57.19
2018-03-23T20:20:12.621Z,57.17
2018-03-23T20:22:41.996Z,57.09
2018-03-23T20:25:10.659Z,57.15
2018-03-23T20:27:48.156Z,57.15
2018-03-23T20:30:17.242Z,57.09
2018-03-23T20:32:46.067Z,57.11
2018-03-23T20:35:15.550Z,57.21
2018-03-23T20:37:45.140Z,57.29
2018-03-23T20:40:14.772Z,57.25
2018-03-23T20:42:43.739Z,57.21
2018-03-23T20:45:12.535Z,57.23
2018-03-23T20:47:41.728Z,57.31
2018-03-23T20:50:10.412Z,57.39
2018-03-23T20:52:39.064Z,57.29
2018-03-23T20:55:07.407Z,56.96
2018-03-23T20:57:36.674Z,56.91
2018-03-23T21:00:05.156Z,56.87
2018-03-23T21:02:35.081Z,56.92
2018-03-23T21:05:03.755Z,56.91
2018-03-23T21:07:32.804Z,56.96
2018-03-23T21:10:01.414Z,57.09
2018-03-23T21:12:30.134Z,57.22
2018-03-23T21:14:59.168Z,57.36
2018-03-23T21:17:28.728Z,57.47
2018-03-23T21:19:57.193Z,57.52
2018-03-23T21:22:25.554Z,57.46
2018-03-23T21:24:53.850Z,57.51
2018-03-23T21:27:22.045Z,57.53
2018-03-23T21:29:50.402Z,57.47
2018-03-23T21:32:18.983Z,57.43
2018-03-23T21:34:47.361Z,57.37
2018-03-23T21:37:17.099Z,57.37
2018-03-23T21:39:45.352Z,57.44
2018-03-23T21:42:14.643Z,57.48
2018-03-23T21:44:43.026Z,57.49
2018-03-23T21:47:11.229Z,57.42
2018-03-23T21:49:39.204Z,57.42
2018-03-23T21:52:07.456Z,57.44
2018-03-23T21:54:35.582Z,57.40
2018-03-23T21:57:03.430Z,57.34
2018-03-23T21:59:31.031Z,57.27
2018-03-23T22:01:58.847Z,57.29
2018-03-23T22:04:26.407Z,57.32
2018-03-23T22:06:54.007Z,57.24
2018-03-23T22:09:21.616Z,57.19
2018-03-23T22:11:49.184Z,57.19
2018-03-23T22:14:16.825Z,57.01
2018-03-23T22:16:44.368Z,57.05
2018-03-23T22:19:11.914Z,56.98
2018-03-23T22:21:39.521Z,57.01
2018-03-23T22:24:07.365Z,56.97
2018-03-23T22:26:35.732Z,56.99
2018-03-23T22:29:03.326Z,56.93
2018-03-23T22:31:31.601Z,56.89
2018-03-23T22:33:59.503Z,56.88
2018-03-23T22:36:27.227Z,56.93
2018-03-23T22:38:54.813Z,56.89
2018-03-23T22:41:22.368Z,56.84
2018-03-23T22:43:49.965Z,56.77
2018-03-23T22:46:17.519Z,56.76
2018-03-23T22:48:45.120Z,56.74
2018-03-23T22:51:12.680Z,57.22
2018-03-23T22:53:40.240Z,57.76
2018-03-23T22:56:07.841Z,57.65
2018-03-23T22:58:36.213Z,57.50
2018-03-23T23:01:03.807Z,57.39
2018-03-23T23:03:31.411Z,57.26
2018-03-23T23:05:58.965Z,57.67
2018-03-23T23:08:26.747Z,57.69
2018-03-23T23:10:54.344Z,57.61
2018-03-23T23:13:21.895Z,57.49
2018-03-23T23:15:49.485Z,57.36
2018-03-23T23:18:17.939Z,57.32
2018-03-23T23:20:45.816Z,57.28
2018-03-23T23:23:14.600Z,57.31
2018-03-23T23:25:42.196Z,57.30
2018-03-23T23:28:09.796Z,57.31
2018-03-23T23:30:37.396Z,57.30
2018-03-23T23:33:05.218Z,57.23
2018-03-23T23:35:33.288Z,57.20
2018-03-23T23:38:00.844Z,57.17
2018-03-23T23:40:28.450Z,57.17
2018-03-23T23:42:56.010Z,57.14
2018-03-23T23:45:23.572Z,57.20
2018-03-23T23:47:51.175Z,57.44
2018-03-23T23:50:19.058Z,57.54
2018-03-23T23:52:46.641Z,57.44
2018-03-23T23:55:14.657Z,57.45
2018-03-23T23:57:42.377Z,57.43
